createdAt,value
2022-08-04T00:02:20.850Z,6.60
2022-08-04T00:03:27.071Z,6.65
2022-08-04T00:04:35.599Z,6.45
2022-08-04T00:05:45.025Z,6.25
2022-08-04T00:06:56.805Z,6.10
2022-08-04T00:09:38.712Z,6.40
2022-08-04T00:10:43.923Z,6.05
2022-08-04T00:11:49.063Z,6.55
2022-08-04T00:12:53.270Z,5.80
2022-08-04T00:14:02.861Z,6.45
2022-08-04T00:15:05.458Z,6.15
2022-08-04T00:16:11.737Z,6.10
2022-08-04T00:17:17.787Z,6.85
2022-08-04T00:18:22.953Z,6.25
2022-08-04T00:20:59.596Z,6.20
2022-08-04T00:22:04.196Z,6.30
2022-08-04T00:23:08.503Z,6.10
2022-08-04T00:24:13.077Z,6.50
2022-08-04T00:25:17.444Z,6.20
2022-08-04T00:26:21.813Z,5.70
2022-08-04T00:28:37.571Z,5.85
2022-08-04T00:29:41.767Z,6.35
2022-08-04T00:31:58.069Z,6.35
2022-08-04T00:33:03.493Z,6.80
2022-08-04T00:34:09.269Z,6.25
2022-08-04T00:35:13.791Z,6.20
2022-08-04T00:36:18.640Z,6.70
2022-08-04T00:37:22.928Z,6.50
2022-08-04T00:38:27.083Z,6.70
2022-08-04T00:39:32.323Z,6.50
2022-08-04T00:40:41.571Z,6.40
2022-08-04T00:42:04.082Z,6.70
2022-08-04T00:43:09.963Z,6.75
2022-08-04T00:44:23.468Z,6.65
2022-08-04T00:46:55.837Z,8.65
2022-08-04T00:48:20.374Z,6.60
2022-08-04T00:50:43.122Z,6.50
2022-08-04T00:51:48.987Z,6.85
2022-08-04T00:54:22.438Z,6.85
2022-08-04T00:55:45.627Z,7.40
2022-08-04T00:57:10.161Z,7.30
2022-08-04T00:58:33.101Z,7.35
2022-08-04T00:59:57.154Z,7.20
2022-08-04T01:05:37.772Z,7.85
2022-08-04T01:06:42.806Z,7.60
2022-08-04T01:08:07.531Z,7.70
2022-08-04T01:09:23.354Z,7.25
2022-08-04T01:10:45.652Z,7.85
2022-08-04T01:12:07.327Z,7.40
2022-08-04T01:13:18.945Z,8.05
2022-08-04T01:14:25.669Z,8.70
2022-08-04T01:15:59.534Z,8.40
2022-08-04T01:16:52.365Z,8.70
2022-08-04T01:18:01.170Z,8.70
2022-08-04T01:19:09.925Z,9.20
2022-08-04T01:20:16.803Z,8.90
2022-08-04T01:21:28.718Z,9.10
2022-08-04T01:22:34.687Z,9.05
2022-08-04T01:23:40.427Z,8.95
2022-08-04T01:26:42.496Z,9.30
2022-08-04T01:28:45.312Z,8.60
2022-08-04T01:29:50.081Z,9.25
2022-08-04T01:30:56.007Z,9.20
2022-08-04T01:32:01.984Z,8.70
2022-08-04T01:34:19.976Z,9.35
2022-08-04T01:35:47.912Z,9.60
2022-08-04T01:36:33.036Z,8.90
2022-08-04T01:37:48.982Z,10.10
2022-08-04T01:38:53.551Z,9.90
2022-08-04T01:41:13.286Z,10.55
2022-08-04T01:42:32.270Z,10.25
2022-08-04T01:43:24.511Z,9.95
2022-08-04T01:44:28.475Z,10.10
2022-08-04T01:45:32.585Z,9.70
2022-08-04T01:46:36.598Z,10.15
2022-08-04T01:47:42.169Z,10.05
2022-08-04T01:48:46.687Z,10.35
2022-08-04T01:49:51.132Z,9.95
2022-08-04T01:50:58.889Z,9.80
2022-08-04T01:52:03.464Z,9.95
2022-08-04T01:53:07.434Z,10.30
2022-08-04T01:55:24.223Z,10.05
2022-08-04T01:56:30.329Z,9.55
2022-08-04T01:58:46.676Z,9.30
2022-08-04T01:59:51.418Z,10.45
2022-08-04T02:02:09.991Z,10.15
2022-08-04T02:03:14.297Z,9.70
2022-08-04T02:04:23.321Z,10.30
2022-08-04T02:06:51.083Z,11.40
2022-08-04T02:08:03.299Z,9.95
2022-08-04T02:09:09.231Z,10.00
2022-08-04T02:10:29.408Z,9.85
2022-08-04T02:11:33.449Z,9.85
2022-08-04T02:14:12.395Z,10.15
2022-08-04T02:15:24.131Z,9.80
2022-08-04T02:16:30.356Z,9.85
2022-08-04T02:17:39.071Z,9.80
2022-08-04T02:21:10.684Z,10.55
2022-08-04T02:22:18.093Z,10.40
2022-08-04T02:23:29.915Z,9.80
2022-08-04T02:24:33.827Z,10.55
2022-08-04T02:25:42.760Z,9.95
2022-08-04T02:26:47.671Z,9.40
2022-08-04T02:28:05.663Z,9.80
2022-08-04T02:29:31.791Z,9.80
2022-08-04T02:31:48.721Z,10.10
2022-08-04T02:32:52.799Z,9.85
2022-08-04T02:34:09.438Z,10.15
2022-08-04T02:36:29.304Z,10.15
2022-08-04T02:37:33.805Z,10.45
2022-08-04T02:38:56.573Z,10.75
2022-08-04T02:41:04.571Z,11.00
2022-08-04T02:42:08.566Z,11.00
2022-08-04T02:43:15.094Z,10.40
2022-08-04T02:44:22.359Z,10.40
2022-08-04T02:45:26.262Z,10.30
2022-08-04T02:48:28.940Z,12.15
2022-08-04T02:48:49.709Z,10.65
2022-08-04T02:49:54.954Z,10.85
2022-08-04T02:51:01.101Z,10.05
2022-08-04T02:52:05.389Z,10.60
2022-08-04T02:54:32.490Z,11.00
2022-08-04T02:55:29.121Z,10.40
2022-08-04T02:56:33.746Z,10.80
2022-08-04T02:57:37.988Z,10.30
2022-08-04T02:58:42.009Z,11.05
2022-08-04T03:01:15.323Z,10.65
2022-08-04T03:02:22.783Z,10.80
2022-08-04T03:04:52.224Z,9.90
2022-08-04T03:06:10.619Z,10.25
2022-08-04T03:07:25.683Z,10.80
2022-08-04T03:08:37.568Z,10.65
2022-08-04T03:09:46.277Z,11.05
2022-08-04T03:11:07.365Z,11.10
2022-08-04T03:12:22.012Z,10.65
2022-08-04T03:14:53.995Z,11.15
2022-08-04T03:15:59.811Z,10.20
2022-08-04T03:18:36.234Z,11.05
2022-08-04T03:20:00.351Z,10.65
2022-08-04T03:21:08.988Z,10.90
2022-08-04T03:22:19.865Z,11.05
2022-08-04T03:23:25.721Z,10.75
2022-08-04T03:24:41.368Z,11.00
2022-08-04T03:27:06.137Z,12.10
2022-08-04T03:28:15.045Z,11.35
2022-08-04T03:29:36.872Z,11.40
2022-08-04T03:30:32.539Z,12.40
2022-08-04T03:31:41.094Z,11.85
2022-08-04T03:32:53.478Z,11.45
2022-08-04T03:35:03.601Z,11.20
2022-08-04T03:36:15.849Z,11.80
2022-08-04T03:37:23.006Z,12.40
2022-08-04T03:38:32.051Z,12.80
2022-08-04T03:39:52.992Z,13.75
2022-08-04T03:41:07.915Z,12.25
2022-08-04T03:42:30.872Z,12.60
2022-08-04T03:45:23.439Z,12.20
2022-08-04T03:46:16.939Z,12.00
2022-08-04T03:47:44.264Z,11.75
2022-08-04T03:50:07.815Z,10.80
2022-08-04T03:51:35.093Z,11.90
2022-08-04T03:53:56.248Z,11.80
2022-08-04T03:55:07.977Z,12.50
2022-08-04T03:56:20.130Z,11.50
2022-08-04T03:57:28.790Z,12.60
2022-08-04T03:58:37.896Z,11.80
2022-08-04T03:59:48.695Z,11.55
2022-08-04T04:05:23.721Z,11.90
2022-08-04T04:07:37.330Z,12.45
2022-08-04T04:10:12.428Z,13.00
2022-08-04T04:12:32.558Z,12.60
2022-08-04T04:13:38.527Z,12.35
2022-08-04T04:16:21.734Z,13.25
2022-08-04T04:20:14.669Z,12.85
2022-08-04T04:22:29.744Z,13.90
2022-08-04T04:25:01.090Z,13.55
2022-08-04T04:26:17.026Z,13.35
2022-08-04T04:27:39.621Z,13.85
2022-08-04T04:28:47.077Z,12.85
2022-08-04T04:29:53.103Z,13.40
2022-08-04T04:30:59.200Z,13.30
2022-08-04T04:33:21.422Z,12.75
2022-08-04T04:35:49.889Z,12.60
